UZB34 UZTT-UZST
Flight info
| Callsign | UZB34 |
|---|---|
| Flight time | N/A |
| Altitude | 36000 |
| Route | KUFIM2A KUFIM DCT NETAT DCT TITAR DCT RONVU/K0870F350 DCT USETU DCT ARPIZ DCT LAVMI DCT FIZLE FIZLE2W |
| Aircraft | B763/H-SDE3FGHIM3RWXY/LB1 |
Departure
| Time | 2026-04-25 15:15 |
|---|---|
| Airport | Tashkent International Airport (UZTT) |
Arrival
| Time | N/A |
|---|---|
| Airport | UZST |
| Time | Latitude | Longitude | Altitude | Speed | Heading |
|---|---|---|---|---|---|
| 2026-04-25 14:53 | 41.26147 | 69.27335 | 1424 ft | 0 kts | 81° |
| 2026-04-25 15:04 | 41.26146 | 69.27330 | 1424 ft | 2 kts | 81° |
| 2026-04-25 15:05 | 41.26144 | 69.27310 | 1424 ft | 2 kts | 81° |
| 2026-04-25 15:05 | 41.26142 | 69.27290 | 1424 ft | 2 kts | 82° |
| 2026-04-25 15:05 | 41.26140 | 69.27271 | 1424 ft | 2 kts | 82° |
| 2026-04-25 15:06 | 41.26135 | 69.27232 | 1424 ft | 2 kts | 82° |
| 2026-04-25 15:06 | 41.26133 | 69.27213 | 1424 ft | 2 kts | 82° |
| 2026-04-25 15:06 | 41.26131 | 69.27193 | 1424 ft | 2 kts | 82° |
| 2026-04-25 15:06 | 41.26131 | 69.27174 | 1424 ft | 2 kts | 104° |
| 2026-04-25 15:07 | 41.26136 | 69.27156 | 1424 ft | 2 kts | 124° |
| 2026-04-25 15:07 | 41.26144 | 69.27145 | 1424 ft | 1 kts | 139° |
| 2026-04-25 15:09 | 41.26080 | 69.27221 | 1424 ft | 10 kts | 138° |
| 2026-04-25 15:10 | 41.26039 | 69.27269 | 1424 ft | 13 kts | 138° |
| 2026-04-25 15:10 | 41.25944 | 69.27383 | 1424 ft | 13 kts | 139° |
| 2026-04-25 15:10 | 41.25829 | 69.27512 | 1424 ft | 12 kts | 138° |
| 2026-04-25 15:11 | 41.25713 | 69.27657 | 1424 ft | 17 kts | 140° |
| 2026-04-25 15:11 | 41.25619 | 69.27708 | 1424 ft | 4 kts | 217° |
| 2026-04-25 15:11 | 41.25599 | 69.27600 | 1424 ft | 24 kts | 260° |
| 2026-04-25 15:12 | 41.25528 | 69.26974 | 1423 ft | 36 kts | 261° |
| 2026-04-25 15:12 | 41.25493 | 69.26643 | 1423 ft | 36 kts | 263° |
| 2026-04-25 15:12 | 41.25456 | 69.26317 | 1423 ft | 35 kts | 262° |
| 2026-04-25 15:12 | 41.25444 | 69.26208 | 1423 ft | 35 kts | 261° |
| 2026-04-25 15:13 | 41.25432 | 69.25832 | 1423 ft | 14 kts | 323° |
| 2026-04-25 15:13 | 41.25589 | 69.25839 | 1423 ft | 9 kts | 61° |
| 2026-04-25 15:13 | 41.25602 | 69.25893 | 1423 ft | 0 kts | 81° |
| 2026-04-25 15:14 | 41.25609 | 69.25961 | 1423 ft | 30 kts | 82° |
| 2026-04-25 15:14 | 41.25677 | 69.26582 | 1423 ft | 108 kts | 82° |
| 2026-04-25 15:15 | 41.25835 | 69.27943 | 1584 ft | 177 kts | 80° |
| 2026-04-25 15:15 | 41.25998 | 69.29574 | 2598 ft | 192 kts | 82° |
| 2026-04-25 15:15 | 41.26165 | 69.31332 | 3214 ft | 202 kts | 83° |
| 2026-04-25 15:15 | 41.26362 | 69.33244 | 3702 ft | 214 kts | 82° |
| 2026-04-25 15:16 | 41.26580 | 69.35282 | 4228 ft | 230 kts | 82° |
| 2026-04-25 15:16 | 41.26804 | 69.37369 | 5080 ft | 230 kts | 82° |
| 2026-04-25 15:16 | 41.26221 | 69.41644 | 5881 ft | 271 kts | 130° |
| 2026-04-25 15:17 | 41.22841 | 69.43707 | 7423 ft | 284 kts | 185° |
| 2026-04-25 15:17 | 41.20989 | 69.43045 | 8466 ft | 279 kts | 209° |
| 2026-04-25 15:17 | 41.19438 | 69.41414 | 9024 ft | 294 kts | 232° |
| 2026-04-25 15:18 | 41.18373 | 69.39211 | 10259 ft | 285 kts | 237° |
| 2026-04-25 15:18 | 41.15933 | 69.34641 | 11064 ft | 334 kts | 235° |
| 2026-04-25 15:18 | 41.14547 | 69.32012 | 11316 ft | 363 kts | 236° |
| 2026-04-25 15:19 | 41.13098 | 69.29253 | 12177 ft | 371 kts | 236° |
| 2026-04-25 15:19 | 41.12609 | 69.28320 | 12495 ft | 373 kts | 236° |
| 2026-04-25 15:19 | 41.10090 | 69.23498 | 13055 ft | 391 kts | 236° |
| 2026-04-25 15:19 | 41.08562 | 69.20574 | 13044 ft | 378 kts | 236° |
| 2026-04-25 15:20 | 41.07082 | 69.17744 | 13035 ft | 371 kts | 236° |
| 2026-04-25 15:20 | 41.05604 | 69.14915 | 13107 ft | 384 kts | 236° |
| 2026-04-25 15:20 | 41.04077 | 69.11996 | 14162 ft | 385 kts | 236° |
| 2026-04-25 15:20 | 41.02566 | 69.09113 | 15113 ft | 389 kts | 236° |
| 2026-04-25 15:21 | 41.01014 | 69.06153 | 15991 ft | 394 kts | 236° |
| 2026-04-25 15:21 | 40.99457 | 69.03185 | 16821 ft | 399 kts | 236° |
| 2026-04-25 15:21 | 40.97875 | 69.00175 | 17705 ft | 403 kts | 236° |
| 2026-04-25 15:21 | 40.96268 | 68.97118 | 18587 ft | 407 kts | 236° |
| 2026-04-25 15:22 | 40.94641 | 68.94028 | 19406 ft | 412 kts | 236° |
| 2026-04-25 15:22 | 40.93004 | 68.90920 | 20259 ft | 416 kts | 236° |
| 2026-04-25 15:22 | 40.91359 | 68.87802 | 21068 ft | 419 kts | 236° |
| 2026-04-25 15:22 | 40.89699 | 68.84657 | 21772 ft | 425 kts | 237° |
| 2026-04-25 15:23 | 40.88000 | 68.81443 | 22487 ft | 429 kts | 237° |
| 2026-04-25 15:23 | 40.86626 | 68.78844 | 23028 ft | 432 kts | 237° |
| 2026-04-25 15:23 | 40.84895 | 68.75576 | 23712 ft | 436 kts | 237° |
| 2026-04-25 15:23 | 40.83173 | 68.72328 | 24342 ft | 440 kts | 237° |
| 2026-04-25 15:24 | 40.81390 | 68.69014 | 24881 ft | 445 kts | 234° |
| 2026-04-25 15:24 | 40.79337 | 68.65913 | 25424 ft | 450 kts | 230° |
| 2026-04-25 15:24 | 40.77229 | 68.62875 | 25938 ft | 454 kts | 231° |
| 2026-04-25 15:24 | 40.76530 | 68.61862 | 26099 ft | 455 kts | 230° |
| 2026-04-25 15:25 | 40.72945 | 68.56726 | 26960 ft | 460 kts | 231° |
| 2026-04-25 15:25 | 40.70779 | 68.53631 | 27428 ft | 463 kts | 231° |
| 2026-04-25 15:25 | 40.68577 | 68.50489 | 27894 ft | 466 kts | 231° |
| 2026-04-25 15:25 | 40.66386 | 68.47367 | 28255 ft | 471 kts | 231° |
| 2026-04-25 15:26 | 40.64155 | 68.44194 | 28652 ft | 474 kts | 231° |
| 2026-04-25 15:26 | 40.61921 | 68.41022 | 29104 ft | 476 kts | 231° |
| 2026-04-25 15:26 | 40.59582 | 68.37876 | 29374 ft | 481 kts | 229° |
| 2026-04-25 15:26 | 40.57217 | 68.34774 | 29920 ft | 479 kts | 229° |
| 2026-04-25 15:27 | 40.54882 | 68.31709 | 30377 ft | 479 kts | 229° |
| 2026-04-25 15:27 | 40.52528 | 68.28619 | 30916 ft | 476 kts | 229° |
| 2026-04-25 15:27 | 40.47885 | 68.22533 | 31989 ft | 471 kts | 229° |
| 2026-04-25 15:28 | 40.45563 | 68.19495 | 32535 ft | 467 kts | 229° |
| 2026-04-25 15:28 | 40.43293 | 68.16527 | 33073 ft | 464 kts | 229° |
| 2026-04-25 15:28 | 40.41002 | 68.13532 | 33513 ft | 462 kts | 230° |
| 2026-04-25 15:28 | 40.38736 | 68.10574 | 33921 ft | 461 kts | 230° |
| 2026-04-25 15:29 | 40.36488 | 68.07642 | 34364 ft | 459 kts | 230° |
| 2026-04-25 15:29 | 40.34216 | 68.04684 | 34885 ft | 456 kts | 230° |
| 2026-04-25 15:29 | 40.31988 | 68.01785 | 35284 ft | 456 kts | 230° |
| 2026-04-25 15:29 | 40.29751 | 67.98875 | 35619 ft | 456 kts | 230° |
| 2026-04-25 15:30 | 40.27499 | 67.95951 | 36055 ft | 452 kts | 230° |
| 2026-04-25 15:30 | 40.23020 | 67.90142 | 36058 ft | 452 kts | 230° |
| 2026-04-25 15:31 | 40.18601 | 67.84422 | 36064 ft | 449 kts | 231° |
| 2026-04-25 15:31 | 40.14155 | 67.78677 | 36082 ft | 452 kts | 230° |
| 2026-04-25 15:32 | 40.09747 | 67.72887 | 36096 ft | 449 kts | 231° |
| 2026-04-25 15:32 | 40.05356 | 67.67086 | 36110 ft | 449 kts | 231° |
| 2026-04-25 15:33 | 39.98776 | 67.58418 | 36119 ft | 449 kts | 231° |
| 2026-04-25 15:33 | 39.94386 | 67.52651 | 36109 ft | 448 kts | 232° |
| 2026-04-25 15:34 | 39.90033 | 67.46940 | 36116 ft | 446 kts | 232° |
| 2026-04-25 15:34 | 39.87119 | 67.43124 | 36141 ft | 445 kts | 232° |
| 2026-04-25 15:35 | 39.79040 | 67.32702 | 36131 ft | 451 kts | 226° |
| 2026-04-25 15:36 | 39.70435 | 67.27284 | 36174 ft | 478 kts | 198° |
| 2026-04-25 15:36 | 39.63779 | 67.26386 | 36164 ft | 485 kts | 191° |
| 2026-04-25 15:37 | 39.57024 | 67.25723 | 36175 ft | 487 kts | 191° |
| 2026-04-25 15:37 | 39.50255 | 67.25060 | 36180 ft | 487 kts | 191° |
| 2026-04-25 15:38 | 39.43501 | 67.24401 | 36200 ft | 486 kts | 191° |
| 2026-04-25 15:38 | 39.36758 | 67.23652 | 36141 ft | 489 kts | 192° |
| 2026-04-25 15:39 | 39.33377 | 67.23270 | 35804 ft | 486 kts | 192° |
| 2026-04-25 15:39 | 39.30050 | 67.22903 | 35387 ft | 481 kts | 192° |
| 2026-04-25 15:39 | 39.26673 | 67.22519 | 34481 ft | 484 kts | 192° |
| 2026-04-25 15:39 | 39.23357 | 67.22145 | 33674 ft | 483 kts | 191° |
| 2026-04-25 15:40 | 39.20015 | 67.21771 | 32868 ft | 479 kts | 190° |
| 2026-04-25 15:40 | 39.18912 | 67.21648 | 32556 ft | 476 kts | 190° |
| 2026-04-25 15:40 | 39.13445 | 67.21035 | 31291 ft | 475 kts | 189° |
| 2026-04-25 15:40 | 39.10160 | 67.20665 | 30543 ft | 482 kts | 189° |
| 2026-04-25 15:41 | 39.06781 | 67.20287 | 29869 ft | 483 kts | 189° |
| 2026-04-25 15:41 | 39.03434 | 67.19916 | 29286 ft | 483 kts | 188° |
| 2026-04-25 15:41 | 39.00136 | 67.19550 | 28713 ft | 480 kts | 188° |
| 2026-04-25 15:41 | 38.96818 | 67.19183 | 28138 ft | 475 kts | 188° |
| 2026-04-25 15:42 | 38.93545 | 67.18819 | 27571 ft | 470 kts | 188° |
| 2026-04-25 15:42 | 38.90264 | 67.18454 | 27104 ft | 475 kts | 188° |
| 2026-04-25 15:42 | 38.86943 | 67.18085 | 26523 ft | 470 kts | 188° |
| 2026-04-25 15:42 | 38.83720 | 67.17729 | 25962 ft | 461 kts | 188° |
| 2026-04-25 15:43 | 38.80539 | 67.17377 | 25418 ft | 453 kts | 188° |
| 2026-04-25 15:43 | 38.77434 | 67.17033 | 24894 ft | 449 kts | 188° |
| 2026-04-25 15:43 | 38.74315 | 67.16687 | 24381 ft | 447 kts | 188° |
| 2026-04-25 15:43 | 38.71233 | 67.16345 | 23871 ft | 446 kts | 188° |
| 2026-04-25 15:44 | 38.68144 | 67.16005 | 23364 ft | 443 kts | 188° |
| 2026-04-25 15:44 | 38.65075 | 67.15665 | 22864 ft | 439 kts | 188° |
| 2026-04-25 15:44 | 38.62082 | 67.15339 | 22386 ft | 435 kts | 188° |
| 2026-04-25 15:44 | 38.59065 | 67.15002 | 21905 ft | 431 kts | 188° |
| 2026-04-25 15:45 | 38.56080 | 67.14674 | 21436 ft | 429 kts | 187° |
| 2026-04-25 15:45 | 38.53122 | 67.14348 | 20977 ft | 425 kts | 187° |
| 2026-04-25 15:45 | 38.50186 | 67.14026 | 20520 ft | 422 kts | 187° |
| 2026-04-25 15:45 | 38.49208 | 67.13918 | 20368 ft | 421 kts | 187° |
| 2026-04-25 15:46 | 38.44344 | 67.13386 | 19612 ft | 416 kts | 187° |
| 2026-04-25 15:46 | 38.43400 | 67.13282 | 19465 ft | 414 kts | 187° |
| 2026-04-25 15:47 | 38.30200 | 67.11836 | 17413 ft | 400 kts | 186° |
| 2026-04-25 15:47 | 38.27451 | 67.11536 | 16987 ft | 397 kts | 186° |
| 2026-04-25 15:47 | 38.24699 | 67.11236 | 16545 ft | 394 kts | 186° |
| 2026-04-25 15:48 | 38.22004 | 67.10944 | 16114 ft | 392 kts | 186° |
| 2026-04-25 15:48 | 38.19292 | 67.10646 | 15676 ft | 391 kts | 186° |
| 2026-04-25 15:48 | 38.16577 | 67.10354 | 15236 ft | 389 kts | 186° |
| 2026-04-25 15:48 | 38.13872 | 67.10056 | 14793 ft | 386 kts | 185° |
| 2026-04-25 15:49 | 38.11221 | 67.09768 | 14383 ft | 381 kts | 185° |
| 2026-04-25 15:49 | 38.08584 | 67.09485 | 13946 ft | 378 kts | 185° |
| 2026-04-25 15:49 | 38.06014 | 67.09207 | 13575 ft | 375 kts | 185° |
| 2026-04-25 15:49 | 38.03374 | 67.08924 | 13210 ft | 374 kts | 185° |
| 2026-04-25 15:50 | 38.00814 | 67.08649 | 13095 ft | 369 kts | 185° |
| 2026-04-25 15:50 | 37.98243 | 67.08374 | 12621 ft | 379 kts | 185° |
| 2026-04-25 15:50 | 37.95578 | 67.08089 | 12049 ft | 377 kts | 185° |
| 2026-04-25 15:50 | 37.93035 | 67.07817 | 11392 ft | 365 kts | 185° |
| 2026-04-25 15:51 | 37.90556 | 67.07552 | 10795 ft | 350 kts | 185° |
| 2026-04-25 15:51 | 37.90285 | 67.07523 | 10729 ft | 348 kts | 185° |
| 2026-04-25 15:51 | 37.88520 | 67.07334 | 10353 ft | 342 kts | 185° |
| 2026-04-25 15:51 | 37.86134 | 67.07080 | 9784 ft | 342 kts | 185° |
| 2026-04-25 15:52 | 37.83770 | 67.06827 | 9207 ft | 342 kts | 185° |
| 2026-04-25 15:52 | 37.81403 | 67.06570 | 8560 ft | 336 kts | 185° |
| 2026-04-25 15:52 | 37.79153 | 67.06331 | 8161 ft | 318 kts | 184° |
| 2026-04-25 15:52 | 37.76996 | 67.06101 | 7916 ft | 299 kts | 184° |
| 2026-04-25 15:53 | 37.74982 | 67.05887 | 7676 ft | 283 kts | 184° |
| 2026-04-25 15:53 | 37.73056 | 67.05682 | 7438 ft | 273 kts | 184° |
| 2026-04-25 15:53 | 37.71176 | 67.05523 | 7274 ft | 272 kts | 176° |
| 2026-04-25 15:53 | 37.69358 | 67.06143 | 7084 ft | 270 kts | 147° |
| 2026-04-25 15:54 | 37.67982 | 67.07684 | 6934 ft | 265 kts | 129° |
| 2026-04-25 15:54 | 37.66790 | 67.09454 | 6736 ft | 266 kts | 129° |
| 2026-04-25 15:54 | 37.65597 | 67.11243 | 6521 ft | 264 kts | 128° |
| 2026-04-25 15:54 | 37.64428 | 67.13034 | 6304 ft | 261 kts | 127° |
| 2026-04-25 15:55 | 37.63667 | 67.14209 | 6161 ft | 260 kts | 127° |
| 2026-04-25 15:55 | 37.62153 | 67.16564 | 5890 ft | 258 kts | 127° |
| 2026-04-25 15:55 | 37.61028 | 67.18317 | 5724 ft | 257 kts | 127° |
| 2026-04-25 15:55 | 37.59902 | 67.20077 | 5559 ft | 257 kts | 127° |
| 2026-04-25 15:56 | 37.58781 | 67.21830 | 5401 ft | 257 kts | 127° |
| 2026-04-25 15:56 | 37.57656 | 67.23587 | 5240 ft | 257 kts | 127° |
| 2026-04-25 15:56 | 37.56521 | 67.25359 | 5069 ft | 256 kts | 127° |
| 2026-04-25 15:56 | 37.55412 | 67.27090 | 4912 ft | 255 kts | 127° |
| 2026-04-25 15:57 | 37.54292 | 67.28838 | 4745 ft | 255 kts | 127° |
| 2026-04-25 15:57 | 37.53176 | 67.30579 | 4579 ft | 255 kts | 127° |
| 2026-04-25 15:57 | 37.52075 | 67.32295 | 4413 ft | 254 kts | 127° |
| 2026-04-25 15:57 | 37.50958 | 67.34036 | 4259 ft | 253 kts | 127° |
| 2026-04-25 15:58 | 37.49865 | 67.35739 | 4099 ft | 253 kts | 127° |
| 2026-04-25 15:58 | 37.48752 | 67.37471 | 3930 ft | 252 kts | 127° |
| 2026-04-25 15:58 | 37.47658 | 67.39172 | 3763 ft | 252 kts | 127° |
| 2026-04-25 15:58 | 37.46551 | 67.40894 | 3600 ft | 251 kts | 127° |
| 2026-04-25 15:59 | 37.45459 | 67.42591 | 3440 ft | 250 kts | 127° |
| 2026-04-25 15:59 | 37.44364 | 67.44292 | 3266 ft | 248 kts | 127° |
| 2026-04-25 15:59 | 37.43284 | 67.45969 | 3102 ft | 248 kts | 127° |
| 2026-04-25 15:59 | 37.42198 | 67.47653 | 2992 ft | 243 kts | 127° |
| 2026-04-25 16:00 | 37.41509 | 67.48721 | 2942 ft | 233 kts | 127° |
| 2026-04-25 16:00 | 37.40847 | 67.49744 | 2985 ft | 217 kts | 127° |
| 2026-04-25 16:00 | 37.38882 | 67.51356 | 3014 ft | 207 kts | 166° |
| 2026-04-25 16:00 | 37.37481 | 67.51698 | 3048 ft | 204 kts | 165° |
| 2026-04-25 16:01 | 37.36079 | 67.52044 | 3019 ft | 208 kts | 167° |
| 2026-04-25 16:01 | 37.34628 | 67.51995 | 2975 ft | 209 kts | 196° |
| 2026-04-25 16:01 | 37.33534 | 67.50969 | 2952 ft | 190 kts | 238° |
| 2026-04-25 16:01 | 37.33068 | 67.49470 | 3010 ft | 185 kts | 253° |
| 2026-04-25 16:02 | 37.32677 | 67.47912 | 3018 ft | 192 kts | 253° |
| 2026-04-25 16:02 | 37.32287 | 67.46296 | 2958 ft | 190 kts | 254° |
| 2026-04-25 16:02 | 37.31946 | 67.44773 | 2789 ft | 173 kts | 255° |
| 2026-04-25 16:02 | 37.31642 | 67.43408 | 2640 ft | 151 kts | 255° |
| 2026-04-25 16:03 | 37.31367 | 67.42175 | 2471 ft | 146 kts | 255° |
| 2026-04-25 16:03 | 37.31084 | 67.40932 | 2339 ft | 150 kts | 254° |
| 2026-04-25 16:03 | 37.30769 | 67.39678 | 2157 ft | 149 kts | 253° |
| 2026-04-25 16:03 | 37.30450 | 67.38451 | 1986 ft | 152 kts | 254° |
| 2026-04-25 16:04 | 37.30161 | 67.37183 | 1801 ft | 147 kts | 256° |
| 2026-04-25 16:04 | 37.29897 | 67.35940 | 1542 ft | 149 kts | 257° |
| 2026-04-25 16:04 | 37.29630 | 67.34711 | 1365 ft | 146 kts | 256° |
| 2026-04-25 16:04 | 37.29343 | 67.33427 | 1228 ft | 157 kts | 256° |
| 2026-04-25 16:05 | 37.29049 | 67.32140 | 1041 ft | 147 kts | 256° |
| 2026-04-25 16:05 | 37.28795 | 67.30997 | 1034 ft | 114 kts | 254° |
| 2026-04-25 16:05 | 37.28538 | 67.29881 | 1034 ft | 37 kts | 253° |
| 2026-04-25 16:06 | 37.28468 | 67.29566 | 1034 ft | 36 kts | 254° |
| 2026-04-25 16:06 | 37.28416 | 67.29333 | 1034 ft | 14 kts | 254° |
| 2026-04-25 16:06 | 37.28407 | 67.29235 | 1034 ft | 7 kts | 283° |
| 2026-04-25 16:06 | 37.28393 | 67.29220 | 1034 ft | 2 kts | 166° |
| 2026-04-25 16:07 | 37.28389 | 67.29257 | 1034 ft | 17 kts | 76° |
| 2026-04-25 16:07 | 37.28404 | 67.29321 | 1034 ft | 28 kts | 72° |
| 2026-04-25 16:07 | 37.28527 | 67.29822 | 1034 ft | 46 kts | 74° |
| 2026-04-25 16:07 | 37.28605 | 67.30161 | 1034 ft | 28 kts | 73° |
| 2026-04-25 16:08 | 37.28576 | 67.30309 | 1034 ft | 15 kts | 159° |
| 2026-04-25 16:08 | 37.28481 | 67.30368 | 1034 ft | 15 kts | 139° |
| 2026-04-25 16:08 | 37.28408 | 67.30468 | 1034 ft | 15 kts | 129° |
| 2026-04-25 16:08 | 37.28337 | 67.30579 | 1034 ft | 16 kts | 128° |
| 2026-04-25 16:09 | 37.28266 | 67.30694 | 1034 ft | 17 kts | 127° |
| 2026-04-25 16:09 | 37.28192 | 67.30812 | 1034 ft | 17 kts | 128° |
| 2026-04-25 16:09 | 37.28117 | 67.30936 | 1034 ft | 17 kts | 128° |
| 2026-04-25 16:09 | 37.28110 | 67.31064 | 1034 ft | 15 kts | 68° |
| 2026-04-25 16:10 | 37.28137 | 67.31147 | 1034 ft | 15 kts | 68° |
| 2026-04-25 16:10 | 37.28191 | 67.31310 | 1034 ft | 16 kts | 66° |
| 2026-04-25 16:10 | 37.28234 | 67.31432 | 1034 ft | 16 kts | 66° |
| 2026-04-25 16:10 | 37.28267 | 67.31558 | 1034 ft | 10 kts | 94° |
| 2026-04-25 16:11 | 37.28235 | 67.31600 | 1034 ft | 5 kts | 148° |
| 2026-04-25 16:11 | 37.28207 | 67.31633 | 1034 ft | 3 kts | 103° |
| 2026-04-25 16:11 | 37.28211 | 67.31673 | 1034 ft | 5 kts | 70° |
| 2026-04-25 16:11 | 37.28228 | 67.31721 | 1034 ft | 6 kts | 66° |
| 2026-04-25 16:12 | 37.28230 | 67.31727 | 1034 ft | 0 kts | 67° |